createdAt,value
2018-10-03T00:04:28.990Z,4.80
2018-10-03T00:09:33.167Z,4.83
2018-10-03T00:14:37.429Z,4.50
2018-10-03T00:19:41.622Z,5.13
2018-10-03T00:24:45.860Z,3.97
2018-10-03T00:29:50.122Z,4.67
2018-10-03T00:34:54.342Z,3.47
2018-10-03T00:39:58.621Z,3.80
2018-10-03T00:45:02.797Z,3.50
2018-10-03T00:50:06.981Z,3.13
2018-10-03T00:55:11.189Z,3.00
2018-10-03T01:00:15.739Z,3.27
2018-10-03T01:05:19.939Z,3.23
2018-10-03T01:10:24.179Z,2.50
2018-10-03T01:15:28.511Z,3.30
2018-10-03T01:20:32.755Z,2.73
2018-10-03T01:25:36.991Z,2.90
2018-10-03T01:30:41.200Z,2.80
2018-10-03T01:35:45.339Z,3.20
2018-10-03T01:40:49.554Z,2.90
2018-10-03T01:45:54.011Z,3.03
2018-10-03T01:50:58.314Z,2.57
2018-10-03T01:56:02.548Z,3.03
2018-10-03T02:01:06.706Z,3.17
2018-10-03T02:06:10.955Z,2.83
2018-10-03T02:11:15.133Z,3.00
2018-10-03T02:16:19.372Z,2.90
2018-10-03T02:21:23.737Z,2.97
2018-10-03T02:26:28.083Z,2.57
2018-10-03T02:31:32.435Z,3.10
2018-10-03T02:36:36.603Z,2.60
2018-10-03T02:41:40.815Z,2.80
2018-10-03T02:46:45.045Z,2.40
2018-10-03T02:51:49.850Z,2.63
2018-10-03T02:56:54.056Z,2.57
2018-10-03T03:01:58.325Z,2.43
2018-10-03T03:07:02.507Z,2.50
2018-10-03T03:12:06.847Z,2.47
2018-10-03T03:17:11.050Z,3.07
2018-10-03T03:22:22.439Z,2.33
2018-10-03T03:27:26.618Z,2.33
2018-10-03T03:32:30.884Z,2.00
2018-10-03T03:37:35.059Z,2.37
2018-10-03T03:42:39.255Z,2.23
2018-10-03T03:47:43.541Z,2.47
2018-10-03T03:52:47.762Z,2.70
2018-10-03T03:57:52.001Z,2.07
2018-10-03T04:02:56.271Z,2.17
2018-10-03T04:08:00.458Z,1.83
2018-10-03T04:13:04.942Z,2.00
2018-10-03T04:18:09.123Z,1.83
2018-10-03T04:23:13.337Z,2.10
2018-10-03T04:28:17.519Z,2.27
2018-10-03T04:33:21.754Z,2.67
2018-10-03T04:38:25.989Z,2.20
2018-10-03T04:43:30.152Z,1.90
2018-10-03T04:48:34.482Z,2.57
2018-10-03T04:53:39.005Z,2.70
2018-10-03T04:58:43.368Z,2.70
2018-10-03T05:03:47.775Z,2.27
2018-10-03T05:08:51.941Z,2.77
2018-10-03T05:13:56.466Z,2.80
2018-10-03T05:19:00.880Z,2.47
2018-10-03T05:24:05.173Z,4.13
2018-10-03T05:29:09.583Z,3.17
2018-10-03T05:34:13.983Z,2.87
2018-10-03T05:39:18.620Z,3.03
2018-10-03T05:44:22.809Z,3.07
2018-10-03T05:49:27.078Z,2.87
2018-10-03T05:54:31.372Z,2.33
2018-10-03T05:59:35.626Z,2.23
2018-10-03T06:04:39.852Z,1.93
2018-10-03T06:09:44.040Z,1.50
2018-10-03T06:14:48.264Z,2.40
2018-10-03T06:19:53.081Z,2.40
2018-10-03T06:24:57.351Z,1.90
2018-10-03T06:30:01.642Z,1.97
2018-10-03T06:35:06.146Z,1.77
2018-10-03T06:40:10.357Z,2.33
2018-10-03T06:45:14.621Z,1.83
2018-10-03T06:50:18.965Z,1.73
2018-10-03T06:55:23.340Z,1.83
2018-10-03T07:00:27.760Z,1.93
2018-10-03T07:05:31.948Z,1.87
2018-10-03T07:10:36.143Z,1.53
2018-10-03T07:15:40.350Z,1.80
2018-10-03T07:20:44.587Z,2.17
2018-10-03T07:25:48.847Z,2.20
2018-10-03T07:30:53.005Z,2.60
2018-10-03T07:35:57.198Z,2.10
2018-10-03T07:41:01.379Z,1.87
2018-10-03T07:46:05.546Z,2.30
2018-10-03T07:51:09.742Z,2.33
2018-10-03T07:56:13.965Z,2.07
2018-10-03T08:01:18.248Z,2.20
2018-10-03T08:06:22.478Z,2.40
2018-10-03T08:11:26.847Z,2.37
2018-10-03T08:16:31.180Z,2.20
2018-10-03T08:21:35.360Z,1.70
2018-10-03T08:26:39.530Z,1.90
2018-10-03T08:31:43.800Z,1.77
2018-10-03T08:36:48.166Z,1.77
2018-10-03T08:41:52.344Z,1.43
2018-10-03T08:46:56.601Z,1.80
2018-10-03T08:52:00.992Z,1.90
2018-10-03T08:57:08.659Z,1.47
2018-10-03T09:02:12.898Z,1.80
2018-10-03T09:07:17.485Z,1.37
2018-10-03T09:12:21.787Z,1.83
2018-10-03T09:17:25.960Z,1.63
2018-10-03T09:22:30.469Z,1.30
2018-10-03T09:27:34.756Z,2.23
2018-10-03T09:32:39.004Z,1.30
2018-10-03T09:37:43.270Z,1.50
2018-10-03T09:42:47.614Z,1.60
2018-10-03T09:47:51.965Z,2.17
2018-10-03T09:52:56.429Z,1.97
2018-10-03T09:58:00.646Z,1.40
2018-10-03T10:03:04.852Z,1.33
2018-10-03T10:08:09.069Z,1.57
2018-10-03T10:13:13.494Z,1.30
2018-10-03T10:18:17.707Z,2.03
2018-10-03T10:23:21.904Z,1.20
2018-10-03T10:28:26.185Z,1.97
2018-10-03T10:33:30.572Z,1.63
2018-10-03T10:38:35.033Z,1.53
2018-10-03T10:43:39.377Z,1.47
2018-10-03T10:48:43.594Z,1.40
2018-10-03T10:53:48.020Z,1.27
2018-10-03T10:58:52.389Z,1.50
2018-10-03T11:03:56.629Z,1.33
2018-10-03T11:09:00.945Z,1.40
2018-10-03T11:14:05.185Z,1.47
2018-10-03T11:19:09.758Z,1.57
2018-10-03T11:24:15.335Z,1.13
2018-10-03T11:29:19.416Z,1.40
2018-10-03T11:34:23.887Z,2.10
2018-10-03T11:39:28.415Z,1.60
2018-10-03T11:44:32.770Z,1.53
2018-10-03T11:49:37.016Z,1.20
2018-10-03T11:54:41.223Z,1.40
2018-10-03T11:59:45.634Z,1.50
2018-10-03T12:04:50.496Z,1.60
2018-10-03T12:09:55.124Z,1.63
2018-10-03T12:14:59.401Z,1.40
2018-10-03T12:20:03.763Z,1.67
2018-10-03T12:25:08.150Z,1.83
2018-10-03T12:30:12.401Z,1.60
2018-10-03T12:35:22.075Z,1.30
2018-10-03T12:40:26.401Z,1.60
2018-10-03T12:45:30.736Z,1.50
2018-10-03T12:50:35.479Z,1.60
2018-10-03T12:55:40.004Z,1.53
2018-10-03T13:00:44.380Z,1.40
2018-10-03T13:05:48.826Z,1.70
2018-10-03T13:10:53.525Z,1.70
2018-10-03T13:15:58.287Z,1.90
2018-10-03T13:21:02.501Z,1.30
2018-10-03T13:26:11.288Z,1.97
2018-10-03T13:31:36.854Z,1.50
2018-10-03T13:36:48.574Z,1.77
2018-10-03T13:41:54.521Z,1.67
2018-10-03T13:46:59.500Z,1.83
2018-10-03T13:52:04.215Z,1.73
2018-10-03T13:57:08.751Z,1.33
2018-10-03T14:02:13.709Z,1.20
2018-10-03T14:07:18.113Z,1.50
2018-10-03T14:12:22.361Z,1.30
2018-10-03T14:17:26.720Z,1.87
2018-10-03T14:22:30.933Z,1.20
2018-10-03T14:27:35.112Z,1.40
2018-10-03T14:32:39.697Z,1.23
2018-10-03T14:37:44.107Z,1.67
2018-10-03T14:42:48.667Z,1.43
2018-10-03T14:47:53.168Z,1.60
2018-10-03T14:52:58.213Z,1.63
2018-10-03T14:58:03.123Z,1.30
2018-10-03T15:03:07.548Z,1.33
2018-10-03T15:08:11.717Z,1.20
2018-10-03T15:13:16.194Z,1.13
2018-10-03T15:18:20.616Z,1.30
2018-10-03T15:23:24.878Z,1.50
2018-10-03T15:28:29.255Z,2.03
2018-10-03T15:33:33.492Z,1.40
2018-10-03T15:38:37.743Z,1.40
2018-10-03T15:43:41.995Z,1.13
2018-10-03T15:48:46.377Z,1.57
2018-10-03T15:53:51.053Z,1.90
2018-10-03T15:58:55.991Z,1.17
2018-10-03T16:04:00.749Z,1.17
2018-10-03T16:09:05.754Z,1.30
2018-10-03T16:14:10.086Z,1.60
2018-10-03T16:19:14.355Z,1.10
2018-10-03T16:24:18.541Z,1.47
2018-10-03T16:29:23.711Z,1.20
2018-10-03T16:34:28.096Z,1.23
2018-10-03T16:39:32.388Z,1.50
2018-10-03T16:44:37.035Z,1.40
2018-10-03T16:49:41.418Z,1.03
2018-10-03T16:54:50.389Z,1.47
2018-10-03T16:59:54.645Z,1.40
2018-10-03T17:04:59.536Z,1.23
2018-10-03T17:10:05.872Z,1.57
2018-10-03T17:15:10.162Z,1.40
2018-10-03T17:20:14.340Z,1.63
2018-10-03T17:25:18.738Z,2.03
2018-10-03T17:30:23.119Z,4.27
2018-10-03T17:35:27.299Z,3.13
2018-10-03T17:40:33.238Z,2.20
2018-10-03T17:45:37.495Z,1.40
2018-10-03T17:50:41.809Z,1.70
2018-10-03T17:55:46.743Z,1.60
2018-10-03T18:00:51.695Z,1.97
2018-10-03T18:05:56.014Z,1.70
2018-10-03T18:11:00.218Z,1.93
2018-10-03T18:16:04.486Z,2.37
2018-10-03T18:21:08.856Z,3.47
2018-10-03T18:26:13.387Z,2.90
2018-10-03T18:31:18.276Z,3.97
2018-10-03T18:36:23.621Z,3.20
2018-10-03T18:41:30.945Z,3.33
2018-10-03T18:46:35.644Z,3.40
2018-10-03T18:51:39.940Z,2.77
2018-10-03T18:56:44.273Z,3.80
2018-10-03T19:01:48.976Z,5.23
2018-10-03T19:06:53.900Z,4.90
2018-10-03T19:11:59.492Z,3.83
2018-10-03T19:17:13.537Z,5.83
2018-10-03T19:22:18.880Z,4.50
2018-10-03T19:27:23.258Z,3.63
2018-10-03T19:32:29.354Z,3.17
2018-10-03T19:37:35.116Z,3.37
2018-10-03T19:42:40.678Z,2.93
2018-10-03T19:47:46.479Z,2.80
2018-10-03T19:52:50.709Z,2.37
2018-10-03T19:57:56.241Z,2.43
2018-10-03T20:03:01.205Z,2.37
2018-10-03T20:08:05.777Z,2.60
2018-10-03T20:13:10.486Z,2.20
2018-10-03T20:18:14.726Z,2.37
2018-10-03T20:23:19.179Z,2.10
2018-10-03T20:28:23.445Z,2.97
2018-10-03T20:33:27.761Z,2.57
2018-10-03T20:38:32.072Z,2.37
2018-10-03T20:43:36.716Z,2.40
2018-10-03T20:48:41.100Z,3.53
2018-10-03T20:53:45.370Z,3.40
2018-10-03T20:58:49.622Z,3.00
2018-10-03T21:03:53.815Z,2.53
2018-10-03T21:08:58.060Z,2.10
2018-10-03T21:14:02.233Z,2.63
2018-10-03T21:19:07.010Z,2.27
2018-10-03T21:24:11.213Z,2.40
2018-10-03T21:29:15.389Z,2.10
2018-10-03T21:34:19.586Z,2.20
2018-10-03T21:39:23.979Z,2.47
2018-10-03T21:44:28.341Z,2.10
2018-10-03T21:49:32.585Z,2.30
2018-10-03T21:54:36.835Z,2.33
2018-10-03T21:59:40.973Z,2.43
2018-10-03T22:04:45.269Z,2.20
2018-10-03T22:09:49.413Z,2.40
2018-10-03T22:14:53.657Z,2.27
2018-10-03T22:19:58.003Z,1.80
2018-10-03T22:25:02.184Z,2.17
2018-10-03T22:30:06.563Z,1.93
2018-10-03T22:35:10.953Z,1.90
2018-10-03T22:40:15.108Z,1.90
2018-10-03T22:45:19.329Z,2.10
2018-10-03T22:50:23.502Z,2.00
2018-10-03T22:55:27.676Z,2.27
2018-10-03T23:00:31.920Z,2.20
2018-10-03T23:05:36.205Z,2.33
2018-10-03T23:10:40.418Z,2.73
2018-10-03T23:15:45.696Z,2.43
2018-10-03T23:20:49.909Z,2.33
2018-10-03T23:25:54.163Z,2.50
2018-10-03T23:30:58.495Z,2.33
2018-10-03T23:36:02.680Z,2.10
2018-10-03T23:41:06.994Z,2.60
2018-10-03T23:46:11.257Z,2.07
2018-10-03T23:51:15.401Z,2.30
2018-10-03T23:56:19.571Z,2.50
